Aspen Hill, Maryland
Current Conditions -  °F | °C
As of 7:55 PM on Wednesday 22 Oct 2014 (Local Time) from KGAI Reporting Station
Overcast Overcast  
Wind Chill: 12°   Ceiling: 3400
Heat Index: 12°   Visibility: 10mi
Dew Point:   Wind: 6mph
Humidity: 77%   Direction: 330°NNW
Pressure: 29.98"   Gusts: NA
Location:  39.08°N, 77.09°W
Report Text: KGAI 222355Z 33005KT 10SM OVC034 12/08 A2998 RMK AO1 10120 20110 401200100 54000
Loading
Personal Weather Stations






























Interactive Weather Map
Tropical Storm Tracking
New forecast layout! Learn more

10-Day Weather Forecast

Advertisements
Track Severe Weather on mobile